Airfield :
LOGIN :

Register | Disclaimer

   EN    FR    IT 

 










Legend :    VFR   Marginal VFR   IFR   Intensive IFR   Very Intensive IFR
Visi :
Ceiling :
>= 8 km
>= 3000ft
5 to 8 km
1000 to 3000 ft
1500m to 5 km
500 to 1000 ft
800 to 1500m
200 to 500 ft
< 800m
< 200 ft
Symbols :   Thunderstorms  Fog  Heavy snow  Heavy precipitations  Wind > 20 kt
SIGMETs :     Misc.  Thunderstorms  Icing  Turbulence  Mountain Waves  Volcanic Ashes






- Airport Elevation : 781 ft
- IATA code : SKP


LWSK - Skopje

CURRENT METAR :
  • 190520Z VRB01KT CAVOK 26/20 Q1017 NOSIG

EXPIRED METARs :
  • 190450Z 09002KT CAVOK 24/19 Q1017 NOSIG
  • 190420Z VRB02KT CAVOK 23/19 Q1016 NOSIG
  • 190350Z VRB01KT CAVOK 21/18 Q1016 NOSIG
  • 190320Z VRB01KT CAVOK 21/18 Q1016 NOSIG
  • 190250Z VRB01KT CAVOK 21/19 Q1016 NOSIG
  • 190220Z VRB02KT CAVOK 21/18 Q1016 NOSIG
  • 190150Z VRB01KT CAVOK 22/18 Q1016 NOSIG
  • 190120Z 13004KT 070V150 CAVOK 22/18 Q1016 NOSIG
  • 190050Z 19003KT CAVOK 22/18 Q1016 NOSIG

TAF TAF LWSK
Valid from the 19 at 03:00 until the 20 at 03:00 UTC


190210Z 1903/2003 VRB02KT CAVOK
TEMPO 1911/1919 VRB15G25KT 5000 TSRA FEW033CB BKN040



MET'MAP, your aeronautical weather chart ! - Copyright ORBIFLY December 2007 - Disclaimer

ORBIFLY MET'MAP TEAM :

Programming & Development : Alexandra Zaïnal
Original concept : Baudouin d'Aumeries
Technical & hardware support : Manuel Goepfert
Assistance : Marc-Olivier Méhu




SOURCES & CREDITS :

   NOAA